sensor_id;sensor_type;location;lat;lon;timestamp;P1;durP1;ratioP1;P2;durP2;ratioP2
23360;SDS011;11852;50.082;18.554;2023-11-19T00:00:25;37.9;;;22.4;;
23360;SDS011;11852;50.082;18.554;2023-11-19T00:01:30;37.0;;;24.0;;
23360;SDS011;11852;50.082;18.554;2023-11-19T00:02:40;36.9;;;23.2;;
23360;SDS011;11852;50.082;18.554;2023-11-19T00:03:45;37.6;;;22.9;;
23360;SDS011;11852;50.082;18.554;2023-11-19T00:04:50;37.2;;;22.6;;
23360;SDS011;11852;50.082;18.554;2023-11-19T00:05:55;42.0;;;26.1;;
23360;SDS011;11852;50.082;18.554;2023-11-19T00:07:00;42.5;;;25.1;;
23360;SDS011;11852;50.082;18.554;2023-11-19T00:08:06;39.8;;;23.4;;
23360;SDS011;11852;50.082;18.554;2023-11-19T00:09:11;38.0;;;23.5;;
23360;SDS011;11852;50.082;18.554;2023-11-19T00:10:16;42.5;;;25.4;;
23360;SDS011;11852;50.082;18.554;2023-11-19T00:11:21;41.7;;;23.8;;
23360;SDS011;11852;50.082;18.554;2023-11-19T00:12:26;44.1;;;26.4;;
23360;SDS011;11852;50.082;18.554;2023-11-19T00:13:31;45.6;;;26.5;;
23360;SDS011;11852;50.082;18.554;2023-11-19T00:14:36;44.2;;;26.2;;
23360;SDS011;11852;50.082;18.554;2023-11-19T00:15:44;46.6;;;27.9;;
23360;SDS011;11852;50.082;18.554;2023-11-19T00:16:49;44.2;;;25.8;;
23360;SDS011;11852;50.082;18.554;2023-11-19T00:17:54;46.8;;;27.9;;
23360;SDS011;11852;50.082;18.554;2023-11-19T00:18:59;45.4;;;27.6;;
23360;SDS011;11852;50.082;18.554;2023-11-19T00:20:04;48.2;;;28.8;;
23360;SDS011;11852;50.082;18.554;2023-11-19T00:21:09;53.5;;;28.8;;
23360;SDS011;11852;50.082;18.554;2023-11-19T00:22:14;44.3;;;27.4;;
23360;SDS011;11852;50.082;18.554;2023-11-19T00:23:19;47.1;;;28.8;;
23360;SDS011;11852;50.082;18.554;2023-11-19T00:24:24;47.5;;;27.8;;
23360;SDS011;11852;50.082;18.554;2023-11-19T00:25:29;46.1;;;27.5;;
23360;SDS011;11852;50.082;18.554;2023-11-19T00:26:34;45.7;;;26.9;;
23360;SDS011;11852;50.082;18.554;2023-11-19T00:27:39;45.5;;;26.9;;
23360;SDS011;11852;50.082;18.554;2023-11-19T00:28:44;46.6;;;26.4;;
23360;SDS011;11852;50.082;18.554;2023-11-19T00:29:49;45.5;;;26.4;;
23360;SDS011;11852;50.082;18.554;2023-11-19T00:30:54;44.0;;;26.0;;
23360;SDS011;11852;50.082;18.554;2023-11-19T00:32:02;44.5;;;26.5;;
23360;SDS011;11852;50.082;18.554;2023-11-19T00:33:07;46.1;;;25.5;;
23360;SDS011;11852;50.082;18.554;2023-11-19T00:34:15;42.8;;;25.9;;
23360;SDS011;11852;50.082;18.554;2023-11-19T00:35:20;44.1;;;25.7;;
23360;SDS011;11852;50.082;18.554;2023-11-19T00:36:25;45.4;;;26.4;;
23360;SDS011;11852;50.082;18.554;2023-11-19T00:37:30;45.8;;;26.3;;
23360;SDS011;11852;50.082;18.554;2023-11-19T00:38:40;47.1;;;26.3;;
23360;SDS011;11852;50.082;18.554;2023-11-19T00:39:45;44.4;;;26.2;;
23360;SDS011;11852;50.082;18.554;2023-11-19T00:40:50;44.7;;;26.1;;
23360;SDS011;11852;50.082;18.554;2023-11-19T00:41:55;42.7;;;25.2;;
23360;SDS011;11852;50.082;18.554;2023-11-19T00:43:00;43.0;;;26.2;;
23360;SDS011;11852;50.082;18.554;2023-11-19T00:44:07;45.0;;;25.4;;
23360;SDS011;11852;50.082;18.554;2023-11-19T00:45:12;42.7;;;25.0;;
23360;SDS011;11852;50.082;18.554;2023-11-19T00:46:17;38.3;;;24.2;;
23360;SDS011;11852;50.082;18.554;2023-11-19T00:47:22;39.7;;;23.2;;
23360;SDS011;11852;50.082;18.554;2023-11-19T00:48:27;38.2;;;23.4;;
23360;SDS011;11852;50.082;18.554;2023-11-19T00:49:35;35.1;;;21.6;;
23360;SDS011;11852;50.082;18.554;2023-11-19T00:50:40;36.1;;;22.4;;
23360;SDS011;11852;50.082;18.554;2023-11-19T00:51:47;34.6;;;21.8;;
23360;SDS011;11852;50.082;18.554;2023-11-19T00:52:55;34.5;;;21.1;;
23360;SDS011;11852;50.082;18.554;2023-11-19T00:54:04;31.9;;;19.7;;
23360;SDS011;11852;50.082;18.554;2023-11-19T00:55:12;33.4;;;20.3;;
23360;SDS011;11852;50.082;18.554;2023-11-19T00:56:20;35.8;;;21.8;;
23360;SDS011;11852;50.082;18.554;2023-11-19T00:57:24;37.3;;;22.1;;
23360;SDS011;11852;50.082;18.554;2023-11-19T00:58:30;38.3;;;21.5;;
23360;SDS011;11852;50.082;18.554;2023-11-19T00:59:35;35.1;;;21.6;;
23360;SDS011;11852;50.082;18.554;2023-11-19T01:00:42;36.8;;;21.3;;
23360;SDS011;11852;50.082;18.554;2023-11-19T01:01:52;33.9;;;20.6;;
23360;SDS011;11852;50.082;18.554;2023-11-19T01:02:58;37.1;;;22.1;;
23360;SDS011;11852;50.082;18.554;2023-11-19T01:04:06;35.2;;;21.4;;
23360;SDS011;11852;50.082;18.554;2023-11-19T01:05:11;36.5;;;22.6;;
23360;SDS011;11852;50.082;18.554;2023-11-19T01:06:26;39.4;;;23.9;;
23360;SDS011;11852;50.082;18.554;2023-11-19T01:07:21;38.6;;;23.1;;
23360;SDS011;11852;50.082;18.554;2023-11-19T01:08:27;41.4;;;24.9;;
23360;SDS011;11852;50.082;18.554;2023-11-19T01:09:36;39.1;;;23.4;;
23360;SDS011;11852;50.082;18.554;2023-11-19T01:10:41;42.0;;;24.3;;
23360;SDS011;11852;50.082;18.554;2023-11-19T01:11:49;41.2;;;23.9;;
23360;SDS011;11852;50.082;18.554;2023-11-19T01:12:54;42.2;;;25.3;;
23360;SDS011;11852;50.082;18.554;2023-11-19T01:13:59;42.4;;;25.4;;
23360;SDS011;11852;50.082;18.554;2023-11-19T01:15:04;45.1;;;26.2;;
23360;SDS011;11852;50.082;18.554;2023-11-19T01:16:09;43.3;;;25.7;;
23360;SDS011;11852;50.082;18.554;2023-11-19T01:17:14;46.1;;;26.2;;
23360;SDS011;11852;50.082;18.554;2023-11-19T01:18:21;44.1;;;26.0;;
23360;SDS011;11852;50.082;18.554;2023-11-19T01:19:29;46.1;;;26.0;;
23360;SDS011;11852;50.082;18.554;2023-11-19T01:20:34;44.8;;;25.6;;
23360;SDS011;11852;50.082;18.554;2023-11-19T01:21:40;46.1;;;27.0;;
23360;SDS011;11852;50.082;18.554;2023-11-19T01:22:45;43.1;;;25.6;;
23360;SDS011;11852;50.082;18.554;2023-11-19T01:23:50;43.0;;;25.3;;
23360;SDS011;11852;50.082;18.554;2023-11-19T01:24:55;41.8;;;24.8;;
23360;SDS011;11852;50.082;18.554;2023-11-19T01:26:03;43.2;;;25.8;;
23360;SDS011;11852;50.082;18.554;2023-11-19T01:27:07;43.1;;;24.6;;
23360;SDS011;11852;50.082;18.554;2023-11-19T01:28:12;42.1;;;24.3;;
23360;SDS011;11852;50.082;18.554;2023-11-19T01:29:20;43.0;;;24.8;;
23360;SDS011;11852;50.082;18.554;2023-11-19T01:30:25;43.5;;;25.9;;
23360;SDS011;11852;50.082;18.554;2023-11-19T01:31:32;42.7;;;26.2;;
23360;SDS011;11852;50.082;18.554;2023-11-19T01:32:37;44.3;;;24.8;;
23360;SDS011;11852;50.082;18.554;2023-11-19T01:33:42;43.5;;;26.5;;
23360;SDS011;11852;50.082;18.554;2023-11-19T01:34:47;42.3;;;26.2;;
23360;SDS011;11852;50.082;18.554;2023-11-19T01:35:53;43.0;;;26.0;;
23360;SDS011;11852;50.082;18.554;2023-11-19T01:37:01;48.6;;;27.0;;
23360;SDS011;11852;50.082;18.554;2023-11-19T01:38:06;48.4;;;29.3;;
23360;SDS011;11852;50.082;18.554;2023-11-19T01:39:13;47.6;;;28.4;;
23360;SDS011;11852;50.082;18.554;2023-11-19T01:40:21;49.3;;;29.4;;
23360;SDS011;11852;50.082;18.554;2023-11-19T01:41:35;49.3;;;28.1;;
23360;SDS011;11852;50.082;18.554;2023-11-19T01:42:40;51.0;;;29.3;;
23360;SDS011;11852;50.082;18.554;2023-11-19T01:43:44;50.8;;;28.6;;
23360;SDS011;11852;50.082;18.554;2023-11-19T01:45:59;49.3;;;28.4;;
23360;SDS011;11852;50.082;18.554;2023-11-19T01:47:04;49.7;;;29.1;;
23360;SDS011;11852;50.082;18.554;2023-11-19T01:48:11;46.6;;;27.6;;
23360;SDS011;11852;50.082;18.554;2023-11-19T01:49:16;47.3;;;27.4;;
23360;SDS011;11852;50.082;18.554;2023-11-19T01:50:21;47.7;;;28.1;;
23360;SDS011;11852;50.082;18.554;2023-11-19T01:51:28;44.5;;;26.8;;
23360;SDS011;11852;50.082;18.554;2023-11-19T01:52:36;48.7;;;27.9;;
23360;SDS011;11852;50.082;18.554;2023-11-19T01:53:40;45.3;;;27.0;;
23360;SDS011;11852;50.082;18.554;2023-11-19T01:54:45;47.9;;;28.3;;
23360;SDS011;11852;50.082;18.554;2023-11-19T01:55:50;48.9;;;29.1;;
23360;SDS011;11852;50.082;18.554;2023-11-19T01:56:56;50.2;;;29.9;;
23360;SDS011;11852;50.082;18.554;2023-11-19T01:57:59;50.1;;;28.3;;
23360;SDS011;11852;50.082;18.554;2023-11-19T01:59:04;52.8;;;31.0;;
23360;SDS011;11852;50.082;18.554;2023-11-19T02:00:14;51.3;;;30.7;;
23360;SDS011;11852;50.082;18.554;2023-11-19T02:01:19;53.0;;;30.3;;
23360;SDS011;11852;50.082;18.554;2023-11-19T02:02:24;51.0;;;29.8;;
23360;SDS011;11852;50.082;18.554;2023-11-19T02:03:33;51.8;;;30.9;;
23360;SDS011;11852;50.082;18.554;2023-11-19T02:04:39;49.1;;;28.6;;
23360;SDS011;11852;50.082;18.554;2023-11-19T02:05:47;48.3;;;28.0;;
23360;SDS011;11852;50.082;18.554;2023-11-19T02:07:00;47.4;;;28.0;;
23360;SDS011;11852;50.082;18.554;2023-11-19T02:08:06;46.5;;;27.4;;
23360;SDS011;11852;50.082;18.554;2023-11-19T02:09:13;45.7;;;27.6;;
23360;SDS011;11852;50.082;18.554;2023-11-19T02:10:19;46.1;;;27.1;;
23360;SDS011;11852;50.082;18.554;2023-11-19T02:11:27;45.0;;;27.3;;
23360;SDS011;11852;50.082;18.554;2023-11-19T02:12:41;47.4;;;28.3;;
23360;SDS011;11852;50.082;18.554;2023-11-19T02:13:46;43.6;;;26.5;;
23360;SDS011;11852;50.082;18.554;2023-11-19T02:14:51;43.7;;;26.1;;
23360;SDS011;11852;50.082;18.554;2023-11-19T02:15:56;46.3;;;27.5;;
23360;SDS011;11852;50.082;18.554;2023-11-19T02:17:06;44.3;;;26.2;;
23360;SDS011;11852;50.082;18.554;2023-11-19T02:18:17;44.3;;;27.2;;
23360;SDS011;11852;50.082;18.554;2023-11-19T02:19:22;45.9;;;27.6;;
23360;SDS011;11852;50.082;18.554;2023-11-19T02:20:30;47.3;;;27.2;;
23360;SDS011;11852;50.082;18.554;2023-11-19T02:21:35;45.3;;;27.5;;
23360;SDS011;11852;50.082;18.554;2023-11-19T02:22:42;44.5;;;26.0;;
23360;SDS011;11852;50.082;18.554;2023-11-19T02:23:49;42.1;;;25.0;;
23360;SDS011;11852;50.082;18.554;2023-11-19T02:24:59;44.3;;;26.6;;
23360;SDS011;11852;50.082;18.554;2023-11-19T02:26:03;39.2;;;24.9;;
23360;SDS011;11852;50.082;18.554;2023-11-19T02:27:08;39.8;;;24.4;;
23360;SDS011;11852;50.082;18.554;2023-11-19T02:28:12;40.4;;;25.2;;
23360;SDS011;11852;50.082;18.554;2023-11-19T02:29:22;37.7;;;24.1;;
23360;SDS011;11852;50.082;18.554;2023-11-19T02:30:33;40.4;;;24.5;;
23360;SDS011;11852;50.082;18.554;2023-11-19T02:31:37;39.8;;;23.8;;
23360;SDS011;11852;50.082;18.554;2023-11-19T02:32:45;40.2;;;25.0;;
23360;SDS011;11852;50.082;18.554;2023-11-19T02:33:56;40.6;;;24.8;;
23360;SDS011;11852;50.082;18.554;2023-11-19T02:35:04;41.3;;;24.9;;
23360;SDS011;11852;50.082;18.554;2023-11-19T02:36:08;42.2;;;24.8;;
23360;SDS011;11852;50.082;18.554;2023-11-19T02:37:16;43.3;;;26.5;;
23360;SDS011;11852;50.082;18.554;2023-11-19T02:38:21;41.1;;;25.1;;
23360;SDS011;11852;50.082;18.554;2023-11-19T02:39:29;39.8;;;25.3;;
23360;SDS011;11852;50.082;18.554;2023-11-19T02:40:33;41.2;;;25.4;;
23360;SDS011;11852;50.082;18.554;2023-11-19T02:41:38;41.1;;;25.7;;
23360;SDS011;11852;50.082;18.554;2023-11-19T02:42:43;42.1;;;25.6;;
23360;SDS011;11852;50.082;18.554;2023-11-19T02:43:51;43.0;;;26.2;;
23360;SDS011;11852;50.082;18.554;2023-11-19T02:44:57;43.6;;;26.7;;
23360;SDS011;11852;50.082;18.554;2023-11-19T02:46:07;44.6;;;27.5;;
23360;SDS011;11852;50.082;18.554;2023-11-19T02:47:12;42.2;;;26.0;;
23360;SDS011;11852;50.082;18.554;2023-11-19T02:48:17;41.8;;;26.7;;
23360;SDS011;11852;50.082;18.554;2023-11-19T02:49:22;41.1;;;25.8;;
23360;SDS011;11852;50.082;18.554;2023-11-19T02:50:27;40.9;;;25.4;;
23360;SDS011;11852;50.082;18.554;2023-11-19T02:51:32;42.1;;;26.0;;
23360;SDS011;11852;50.082;18.554;2023-11-19T02:52:37;42.6;;;25.6;;
23360;SDS011;11852;50.082;18.554;2023-11-19T02:53:42;44.8;;;26.7;;
23360;SDS011;11852;50.082;18.554;2023-11-19T02:54:47;42.4;;;26.1;;
23360;SDS011;11852;50.082;18.554;2023-11-19T02:55:51;41.1;;;25.8;;
23360;SDS011;11852;50.082;18.554;2023-11-19T02:56:56;41.8;;;26.0;;
23360;SDS011;11852;50.082;18.554;2023-11-19T02:58:01;41.6;;;26.4;;
23360;SDS011;11852;50.082;18.554;2023-11-19T02:59:06;42.1;;;25.4;;
23360;SDS011;11852;50.082;18.554;2023-11-19T03:00:14;41.4;;;25.5;;
23360;SDS011;11852;50.082;18.554;2023-11-19T03:01:22;43.6;;;26.1;;
23360;SDS011;11852;50.082;18.554;2023-11-19T03:02:30;40.4;;;25.3;;
23360;SDS011;11852;50.082;18.554;2023-11-19T03:03:35;39.1;;;24.8;;
23360;SDS011;11852;50.082;18.554;2023-11-19T03:04:39;39.3;;;24.2;;
23360;SDS011;11852;50.082;18.554;2023-11-19T03:05:50;41.6;;;25.4;;
23360;SDS011;11852;50.082;18.554;2023-11-19T03:06:58;42.6;;;25.7;;
23360;SDS011;11852;50.082;18.554;2023-11-19T03:08:03;40.8;;;25.1;;
23360;SDS011;11852;50.082;18.554;2023-11-19T03:09:08;41.5;;;25.4;;
23360;SDS011;11852;50.082;18.554;2023-11-19T03:10:15;41.3;;;26.7;;
23360;SDS011;11852;50.082;18.554;2023-11-19T03:11:21;43.0;;;26.5;;
23360;SDS011;11852;50.082;18.554;2023-11-19T03:12:29;40.9;;;25.7;;
23360;SDS011;11852;50.082;18.554;2023-11-19T03:13:37;41.7;;;25.4;;
23360;SDS011;11852;50.082;18.554;2023-11-19T03:14:45;42.6;;;26.3;;
23360;SDS011;11852;50.082;18.554;2023-11-19T03:15:51;41.6;;;25.1;;
23360;SDS011;11852;50.082;18.554;2023-11-19T03:16:56;41.1;;;25.4;;
23360;SDS011;11852;50.082;18.554;2023-11-19T03:18:01;46.0;;;27.0;;
23360;SDS011;11852;50.082;18.554;2023-11-19T03:19:05;44.0;;;26.8;;
23360;SDS011;11852;50.082;18.554;2023-11-19T03:20:11;44.4;;;27.2;;
23360;SDS011;11852;50.082;18.554;2023-11-19T03:21:15;44.7;;;26.7;;
23360;SDS011;11852;50.082;18.554;2023-11-19T03:22:22;44.3;;;27.8;;
23360;SDS011;11852;50.082;18.554;2023-11-19T03:23:29;45.7;;;28.4;;
23360;SDS011;11852;50.082;18.554;2023-11-19T03:24:37;43.3;;;26.9;;
23360;SDS011;11852;50.082;18.554;2023-11-19T03:25:44;44.8;;;27.1;;
23360;SDS011;11852;50.082;18.554;2023-11-19T03:26:52;46.1;;;28.7;;
23360;SDS011;11852;50.082;18.554;2023-11-19T03:28:00;47.2;;;28.4;;
23360;SDS011;11852;50.082;18.554;2023-11-19T03:29:04;44.0;;;26.6;;
23360;SDS011;11852;50.082;18.554;2023-11-19T03:30:12;44.3;;;26.8;;
23360;SDS011;11852;50.082;18.554;2023-11-19T03:31:17;44.9;;;27.4;;
23360;SDS011;11852;50.082;18.554;2023-11-19T03:32:22;43.4;;;26.7;;
23360;SDS011;11852;50.082;18.554;2023-11-19T03:33:26;42.9;;;26.7;;
23360;SDS011;11852;50.082;18.554;2023-11-19T03:34:32;42.6;;;25.2;;
23360;SDS011;11852;50.082;18.554;2023-11-19T03:35:36;39.3;;;25.9;;
23360;SDS011;11852;50.082;18.554;2023-11-19T03:36:41;43.4;;;25.5;;
23360;SDS011;11852;50.082;18.554;2023-11-19T03:37:46;39.8;;;24.4;;
23360;SDS011;11852;50.082;18.554;2023-11-19T03:38:51;42.5;;;25.5;;
23360;SDS011;11852;50.082;18.554;2023-11-19T03:39:56;39.6;;;25.2;;
23360;SDS011;11852;50.082;18.554;2023-11-19T03:42:18;41.4;;;25.1;;
23360;SDS011;11852;50.082;18.554;2023-11-19T03:43:22;39.6;;;24.5;;
23360;SDS011;11852;50.082;18.554;2023-11-19T03:44:27;41.8;;;25.7;;
23360;SDS011;11852;50.082;18.554;2023-11-19T03:45:34;41.4;;;25.2;;
23360;SDS011;11852;50.082;18.554;2023-11-19T03:46:39;42.8;;;26.4;;
23360;SDS011;11852;50.082;18.554;2023-11-19T03:47:44;39.5;;;24.9;;
23360;SDS011;11852;50.082;18.554;2023-11-19T03:48:49;37.8;;;24.5;;
23360;SDS011;11852;50.082;18.554;2023-11-19T03:49:54;39.7;;;25.4;;
23360;SDS011;11852;50.082;18.554;2023-11-19T03:50:59;37.4;;;24.1;;
23360;SDS011;11852;50.082;18.554;2023-11-19T03:52:04;39.6;;;25.2;;
23360;SDS011;11852;50.082;18.554;2023-11-19T03:53:09;39.2;;;25.4;;
23360;SDS011;11852;50.082;18.554;2023-11-19T03:54:14;39.0;;;24.4;;
23360;SDS011;11852;50.082;18.554;2023-11-19T03:55:19;38.5;;;24.6;;
23360;SDS011;11852;50.082;18.554;2023-11-19T03:56:24;38.9;;;24.3;;
23360;SDS011;11852;50.082;18.554;2023-11-19T03:57:32;39.1;;;24.6;;
23360;SDS011;11852;50.082;18.554;2023-11-19T03:58:37;36.8;;;23.9;;
23360;SDS011;11852;50.082;18.554;2023-11-19T03:59:42;36.7;;;23.6;;
23360;SDS011;11852;50.082;18.554;2023-11-19T04:00:48;37.1;;;24.5;;
23360;SDS011;11852;50.082;18.554;2023-11-19T04:01:53;36.1;;;24.1;;
23360;SDS011;11852;50.082;18.554;2023-11-19T04:02:58;35.3;;;22.7;;
23360;SDS011;11852;50.082;18.554;2023-11-19T04:04:04;36.3;;;24.3;;
23360;SDS011;11852;50.082;18.554;2023-11-19T04:05:09;37.5;;;23.2;;
23360;SDS011;11852;50.082;18.554;2023-11-19T04:06:14;36.2;;;23.2;;
23360;SDS011;11852;50.082;18.554;2023-11-19T04:07:19;37.3;;;23.6;;
23360;SDS011;11852;50.082;18.554;2023-11-19T04:08:24;34.6;;;21.9;;
23360;SDS011;11852;50.082;18.554;2023-11-19T04:09:32;36.2;;;23.7;;
23360;SDS011;11852;50.082;18.554;2023-11-19T04:10:37;37.0;;;22.8;;
23360;SDS011;11852;50.082;18.554;2023-11-19T04:11:42;37.5;;;23.8;;
23360;SDS011;11852;50.082;18.554;2023-11-19T04:12:49;38.3;;;24.0;;
23360;SDS011;11852;50.082;18.554;2023-11-19T04:13:54;35.6;;;22.6;;
23360;SDS011;11852;50.082;18.554;2023-11-19T04:14:59;38.9;;;23.3;;
23360;SDS011;11852;50.082;18.554;2023-11-19T04:16:04;36.1;;;22.4;;
23360;SDS011;11852;50.082;18.554;2023-11-19T04:17:12;37.6;;;23.3;;
23360;SDS011;11852;50.082;18.554;2023-11-19T04:18:17;36.4;;;22.9;;
23360;SDS011;11852;50.082;18.554;2023-11-19T04:19:22;38.1;;;23.1;;
23360;SDS011;11852;50.082;18.554;2023-11-19T04:20:27;36.1;;;22.6;;
23360;SDS011;11852;50.082;18.554;2023-11-19T04:21:32;35.2;;;22.0;;
23360;SDS011;11852;50.082;18.554;2023-11-19T04:22:36;35.3;;;22.0;;
23360;SDS011;11852;50.082;18.554;2023-11-19T04:23:41;36.7;;;21.8;;
23360;SDS011;11852;50.082;18.554;2023-11-19T04:24:46;35.1;;;21.6;;
23360;SDS011;11852;50.082;18.554;2023-11-19T04:25:51;33.8;;;21.7;;
23360;SDS011;11852;50.082;18.554;2023-11-19T04:26:56;33.7;;;21.2;;
23360;SDS011;11852;50.082;18.554;2023-11-19T04:28:01;33.9;;;22.0;;
23360;SDS011;11852;50.082;18.554;2023-11-19T04:29:12;32.6;;;21.2;;
23360;SDS011;11852;50.082;18.554;2023-11-19T04:30:16;34.9;;;22.2;;
23360;SDS011;11852;50.082;18.554;2023-11-19T04:31:21;32.3;;;20.2;;
23360;SDS011;11852;50.082;18.554;2023-11-19T04:32:26;33.1;;;20.6;;
23360;SDS011;11852;50.082;18.554;2023-11-19T04:33:31;30.9;;;20.1;;
23360;SDS011;11852;50.082;18.554;2023-11-19T04:34:36;30.7;;;20.2;;
23360;SDS011;11852;50.082;18.554;2023-11-19T04:35:41;31.4;;;20.6;;
23360;SDS011;11852;50.082;18.554;2023-11-19T04:36:47;29.9;;;19.5;;
23360;SDS011;11852;50.082;18.554;2023-11-19T04:37:53;31.0;;;21.0;;
23360;SDS011;11852;50.082;18.554;2023-11-19T04:38:57;30.5;;;19.9;;
23360;SDS011;11852;50.082;18.554;2023-11-19T04:40:02;31.2;;;19.4;;
23360;SDS011;11852;50.082;18.554;2023-11-19T04:41:07;32.6;;;20.5;;
23360;SDS011;11852;50.082;18.554;2023-11-19T04:42:17;32.0;;;20.7;;
23360;SDS011;11852;50.082;18.554;2023-11-19T04:43:22;32.7;;;20.8;;
23360;SDS011;11852;50.082;18.554;2023-11-19T04:44:27;33.5;;;21.0;;
23360;SDS011;11852;50.082;18.554;2023-11-19T04:45:31;33.6;;;19.8;;
23360;SDS011;11852;50.082;18.554;2023-11-19T04:46:36;32.9;;;21.2;;
23360;SDS011;11852;50.082;18.554;2023-11-19T04:47:42;30.8;;;19.7;;
23360;SDS011;11852;50.082;18.554;2023-11-19T04:48:46;33.7;;;20.9;;
23360;SDS011;11852;50.082;18.554;2023-11-19T04:49:51;34.4;;;21.8;;
23360;SDS011;11852;50.082;18.554;2023-11-19T04:50:55;33.2;;;21.8;;
23360;SDS011;11852;50.082;18.554;2023-11-19T04:52:04;36.9;;;23.2;;
23360;SDS011;11852;50.082;18.554;2023-11-19T04:53:09;36.9;;;22.2;;
23360;SDS011;11852;50.082;18.554;2023-11-19T04:54:16;37.3;;;24.0;;
23360;SDS011;11852;50.082;18.554;2023-11-19T04:55:24;34.6;;;22.1;;
23360;SDS011;11852;50.082;18.554;2023-11-19T04:56:29;33.7;;;21.8;;
23360;SDS011;11852;50.082;18.554;2023-11-19T04:57:36;35.0;;;22.1;;
23360;SDS011;11852;50.082;18.554;2023-11-19T04:58:41;33.7;;;21.5;;
23360;SDS011;11852;50.082;18.554;2023-11-19T04:59:46;33.4;;;21.0;;
23360;SDS011;11852;50.082;18.554;2023-11-19T05:00:51;32.0;;;20.3;;
23360;SDS011;11852;50.082;18.554;2023-11-19T05:01:55;32.7;;;21.5;;
23360;SDS011;11852;50.082;18.554;2023-11-19T05:03:00;29.1;;;19.0;;
23360;SDS011;11852;50.082;18.554;2023-11-19T05:04:05;27.6;;;18.0;;
23360;SDS011;11852;50.082;18.554;2023-11-19T05:05:10;26.9;;;17.6;;
23360;SDS011;11852;50.082;18.554;2023-11-19T05:06:14;26.4;;;16.8;;
23360;SDS011;11852;50.082;18.554;2023-11-19T05:07:19;24.8;;;16.7;;
23360;SDS011;11852;50.082;18.554;2023-11-19T05:08:24;24.9;;;15.9;;
23360;SDS011;11852;50.082;18.554;2023-11-19T05:09:29;23.7;;;15.0;;
23360;SDS011;11852;50.082;18.554;2023-11-19T05:10:33;24.4;;;16.0;;
23360;SDS011;11852;50.082;18.554;2023-11-19T05:11:38;25.4;;;16.6;;
23360;SDS011;11852;50.082;18.554;2023-11-19T05:12:42;26.4;;;15.7;;
23360;SDS011;11852;50.082;18.554;2023-11-19T05:13:47;25.1;;;15.7;;
23360;SDS011;11852;50.082;18.554;2023-11-19T05:14:52;24.9;;;16.3;;
23360;SDS011;11852;50.082;18.554;2023-11-19T05:15:57;23.1;;;15.5;;
23360;SDS011;11852;50.082;18.554;2023-11-19T05:17:02;24.7;;;15.8;;
23360;SDS011;11852;50.082;18.554;2023-11-19T05:18:06;25.3;;;16.7;;
23360;SDS011;11852;50.082;18.554;2023-11-19T05:19:11;24.9;;;16.2;;
23360;SDS011;11852;50.082;18.554;2023-11-19T05:20:22;24.5;;;16.2;;
23360;SDS011;11852;50.082;18.554;2023-11-19T05:21:29;25.9;;;16.8;;
23360;SDS011;11852;50.082;18.554;2023-11-19T05:22:34;25.1;;;16.4;;
23360;SDS011;11852;50.082;18.554;2023-11-19T05:23:39;25.4;;;16.4;;
23360;SDS011;11852;50.082;18.554;2023-11-19T05:24:43;23.7;;;15.7;;
23360;SDS011;11852;50.082;18.554;2023-11-19T05:25:48;27.2;;;17.3;;
23360;SDS011;11852;50.082;18.554;2023-11-19T05:26:53;27.9;;;16.8;;
23360;SDS011;11852;50.082;18.554;2023-11-19T05:27:57;28.3;;;17.9;;
23360;SDS011;11852;50.082;18.554;2023-11-19T05:29:02;26.9;;;16.7;;
23360;SDS011;11852;50.082;18.554;2023-11-19T05:30:07;27.3;;;16.9;;
23360;SDS011;11852;50.082;18.554;2023-11-19T05:31:12;27.2;;;17.1;;
23360;SDS011;11852;50.082;18.554;2023-11-19T05:32:16;29.1;;;17.9;;
23360;SDS011;11852;50.082;18.554;2023-11-19T05:33:24;28.2;;;18.5;;
23360;SDS011;11852;50.082;18.554;2023-11-19T05:34:29;26.6;;;17.0;;
23360;SDS011;11852;50.082;18.554;2023-11-19T05:35:34;28.9;;;18.0;;
23360;SDS011;11852;50.082;18.554;2023-11-19T05:36:41;31.9;;;20.0;;
23360;SDS011;11852;50.082;18.554;2023-11-19T05:37:46;28.7;;;18.8;;
23360;SDS011;11852;50.082;18.554;2023-11-19T05:38:51;30.1;;;19.1;;
23360;SDS011;11852;50.082;18.554;2023-11-19T05:39:56;29.4;;;18.1;;
23360;SDS011;11852;50.082;18.554;2023-11-19T05:41:01;27.3;;;17.5;;
23360;SDS011;11852;50.082;18.554;2023-11-19T05:42:07;27.0;;;17.4;;
23360;SDS011;11852;50.082;18.554;2023-11-19T05:43:12;25.9;;;16.2;;
23360;SDS011;11852;50.082;18.554;2023-11-19T05:44:17;25.4;;;16.7;;
23360;SDS011;11852;50.082;18.554;2023-11-19T05:45:22;26.5;;;17.0;;
23360;SDS011;11852;50.082;18.554;2023-11-19T05:46:26;26.6;;;17.2;;
23360;SDS011;11852;50.082;18.554;2023-11-19T05:47:31;26.4;;;17.2;;
23360;SDS011;11852;50.082;18.554;2023-11-19T05:48:36;26.8;;;16.7;;
23360;SDS011;11852;50.082;18.554;2023-11-19T05:49:41;26.9;;;18.0;;
23360;SDS011;11852;50.082;18.554;2023-11-19T05:50:46;26.8;;;17.4;;
23360;SDS011;11852;50.082;18.554;2023-11-19T05:51:51;27.6;;;17.8;;
23360;SDS011;11852;50.082;18.554;2023-11-19T05:52:56;29.2;;;18.3;;
23360;SDS011;11852;50.082;18.554;2023-11-19T05:54:01;28.4;;;18.4;;
23360;SDS011;11852;50.082;18.554;2023-11-19T05:55:06;30.5;;;18.8;;
23360;SDS011;11852;50.082;18.554;2023-11-19T05:56:11;29.5;;;18.3;;
23360;SDS011;11852;50.082;18.554;2023-11-19T05:57:16;29.8;;;17.9;;
23360;SDS011;11852;50.082;18.554;2023-11-19T05:58:26;29.6;;;18.7;;
23360;SDS011;11852;50.082;18.554;2023-11-19T05:59:31;31.3;;;19.4;;
23360;SDS011;11852;50.082;18.554;2023-11-19T06:00:36;29.5;;;18.5;;
23360;SDS011;11852;50.082;18.554;2023-11-19T06:01:41;29.8;;;18.4;;
23360;SDS011;11852;50.082;18.554;2023-11-19T06:02:46;33.1;;;19.6;;
23360;SDS011;11852;50.082;18.554;2023-11-19T06:03:51;30.8;;;18.5;;
23360;SDS011;11852;50.082;18.554;2023-11-19T06:04:56;29.8;;;18.6;;
23360;SDS011;11852;50.082;18.554;2023-11-19T06:06:01;29.4;;;18.1;;
23360;SDS011;11852;50.082;18.554;2023-11-19T06:07:06;30.0;;;18.2;;
23360;SDS011;11852;50.082;18.554;2023-11-19T06:08:12;29.6;;;16.1;;
23360;SDS011;11852;50.082;18.554;2023-11-19T06:09:16;25.1;;;16.0;;
23360;SDS011;11852;50.082;18.554;2023-11-19T06:10:21;25.3;;;15.1;;
23360;SDS011;11852;50.082;18.554;2023-11-19T06:11:26;25.0;;;15.3;;
23360;SDS011;11852;50.082;18.554;2023-11-19T06:12:31;25.0;;;15.9;;
23360;SDS011;11852;50.082;18.554;2023-11-19T06:13:35;25.2;;;15.7;;
23360;SDS011;11852;50.082;18.554;2023-11-19T06:14:40;27.0;;;16.3;;
23360;SDS011;11852;50.082;18.554;2023-11-19T06:15:45;26.4;;;15.9;;
23360;SDS011;11852;50.082;18.554;2023-11-19T06:16:49;25.7;;;16.2;;
23360;SDS011;11852;50.082;18.554;2023-11-19T06:17:54;25.1;;;15.5;;
23360;SDS011;11852;50.082;18.554;2023-11-19T06:18:59;24.5;;;15.2;;
23360;SDS011;11852;50.082;18.554;2023-11-19T06:20:04;23.6;;;14.9;;
23360;SDS011;11852;50.082;18.554;2023-11-19T06:21:09;22.8;;;13.8;;
23360;SDS011;11852;50.082;18.554;2023-11-19T06:22:13;22.3;;;14.3;;
23360;SDS011;11852;50.082;18.554;2023-11-19T06:23:18;23.1;;;14.7;;
23360;SDS011;11852;50.082;18.554;2023-11-19T06:24:23;21.1;;;13.4;;
23360;SDS011;11852;50.082;18.554;2023-11-19T06:25:27;21.8;;;13.6;;
23360;SDS011;11852;50.082;18.554;2023-11-19T06:26:32;23.0;;;14.1;;
23360;SDS011;11852;50.082;18.554;2023-11-19T06:27:37;23.2;;;13.6;;
23360;SDS011;11852;50.082;18.554;2023-11-19T06:28:41;23.6;;;13.9;;
23360;SDS011;11852;50.082;18.554;2023-11-19T06:29:46;23.4;;;14.0;;
23360;SDS011;11852;50.082;18.554;2023-11-19T06:30:51;23.2;;;13.9;;
23360;SDS011;11852;50.082;18.554;2023-11-19T06:31:56;22.3;;;14.1;;